Nearby METAR Reports

 

KAVP - Avoca/Wilkes B., Pennsylvania, USA
Distance from station: N 16mi, 25km
Updated: 06/19/2024 7:54pm
Clear
Clear
 Wind from SSW
Wind: SSW 3 mph, 6 km/h
Temperature: 86°F, 30°C
Heat Index: 89°F, 32°C
Dew Point: 68°F, 20°C
Humidity: 55%
Barometer: 30.30 inHg, 1026.1 hPa
Clouds: Clear
Visibility: 8 miles, 13 km
2024/06/19 23:54 KAVP 192354Z AUTO 20003KT 8SM CLR 30/20 A3030 RMK AO2 SLP248 T03000200 10339 20300 51004
KMPO - Mt. Pocono, Pennsylvania, USA
Distance from station: E 20mi, 33km
Updated: 06/19/2024 7:53pm
Clear
Clear
 Wind from S
Wind: S 3 mph, 6 km/h
Temperature: 79°F, 26°C
Dew Point: 66°F, 19°C
Humidity: 65%
Barometer: 30.37 inHg, 1028.4 hPa
Clouds: Clear
Visibility: 10 miles, 16 km
2024/06/19 23:53 KMPO 192353Z AUTO 18003KT 10SM CLR 26/19 A3037 RMK AO2 SLP272 T02610189 10294 20261 51004
 
KABE - Allentown, Pennsylvania, USA
Distance from station: SSE 36mi, 58km
Updated: 06/19/2024 7:51pm
Clear
Clear
 Wind from SW
Wind: SW 9 mph, 15 km/h
Temperature: 84°F, 29°C
Heat Index: 85°F, 29°C
Dew Point: 64°F, 18°C
Humidity: 51%
Barometer: 30.29 inHg, 1025.7 hPa
Clouds: Clear
Visibility: 10 miles, 16 km
2024/06/19 23:51 KABE 192351Z 22008KT 10SM CLR 29/18 A3029 RMK AO2 SLP255 T02940183 10333 20294 53002
KXLL - Allentown Queen, Pennsylvania, USA
Distance from station: SSE 41mi, 65km
Updated: 06/19/2024 7:55pm
Clear
Clear
 Wind from SSW
Wind: SSW 6 mph, 9 km/h
Temperature: 84°F, 29°C
Heat Index: 86°F, 30°C
Dew Point: 66°F, 19°C
Humidity: 55%
Barometer: 30.31 inHg, 1026.4 hPa
Clouds: Clear
Visibility: 10 miles, 16 km
2024/06/19 23:55 KXLL 192355Z AUTO 20005KT 10SM CLR 29/19 A3031 RMK AO2